Time;durP1;ratioP1;P1;durP2;ratioP2;P2;SDS_P1;SDS_P2;PMS_P1;PMS_P2;Temp;Humidity;BMP_temperature;BMP_pressure;BME280_temperature;BME280_humidity;BME280_pressure;Samples;Min_cycle;Max_cycle;Signal;HPM_P1;HPM_P2
2022/12/11 00:00:43;;;;;;;30.92;19.20;;;-0.60;99.90;;;;;;5074325;28;20217;-62
2022/12/11 00:03:10;;;;;;;34.88;17.85;;;-0.60;99.90;;;;;;5074275;28;20204;-62
2022/12/11 00:05:39;;;;;;;33.10;18.17;;;-0.60;99.90;;;;;;5074793;28;20687;-62
2022/12/11 00:08:07;;;;;;;35.75;19.02;;;-0.60;99.90;;;;;;5073894;28;20201;-62
2022/12/11 00:10:34;;;;;;;31.40;18.92;;;-0.70;99.90;;;;;;5074342;28;20587;-62
2022/12/11 00:13:01;;;;;;;31.73;18.80;;;-0.70;99.90;;;;;;5073926;28;20197;-61
2022/12/11 00:15:28;;;;;;;33.78;18.63;;;-0.70;99.90;;;;;;5073843;28;20228;-62
2022/12/11 00:17:55;;;;;;;35.13;19.30;;;-0.70;99.90;;;;;;5073962;28;20207;-63
2022/12/11 00:20:22;;;;;;;30.42;17.90;;;-0.70;99.90;;;;;;5097936;22;20232;-60
2022/12/11 00:22:49;;;;;;;33.10;17.60;;;-0.70;99.90;;;;;;5062055;28;20207;-60
2022/12/11 00:25:17;;;;;;;34.75;18.33;;;-0.80;99.90;;;;;;5056230;28;20207;-61
2022/12/11 00:27:46;;;;;;;29.63;18.05;;;-0.80;99.90;;;;;;5057953;28;20205;-61
2022/12/11 00:30:13;;;;;;;32.05;17.98;;;-0.80;99.90;;;;;;5057049;28;20294;-60
2022/12/11 00:32:40;;;;;;;30.45;18.30;;;-0.70;99.90;;;;;;5057058;28;20197;-60
2022/12/11 00:35:08;;;;;;;32.47;18.08;;;-0.70;99.90;;;;;;5057130;28;20297;-59
2022/12/11 00:37:35;;;;;;;31.02;19.15;;;-0.70;99.90;;;;;;5057518;28;20299;-60
2022/12/11 00:40:02;;;;;;;33.20;18.10;;;-0.70;99.90;;;;;;5057008;28;20229;-60
2022/12/11 00:42:30;;;;;;;31.45;18.52;;;-0.70;99.90;;;;;;5056883;28;20202;-60
2022/12/11 00:44:57;;;;;;;31.63;17.73;;;-0.70;99.90;;;;;;5056708;28;20204;-59
2022/12/11 00:47:23;;;;;;;35.55;18.48;;;-0.70;99.90;;;;;;5056804;28;20204;-60
2022/12/11 00:49:50;;;;;;;31.15;18.52;;;-0.70;99.90;;;;;;5057072;28;20228;-60
2022/12/11 00:52:17;;;;;;;29.75;17.00;;;-0.60;99.90;;;;;;5057108;28;20258;-60
2022/12/11 00:54:44;;;;;;;31.77;18.10;;;-0.70;99.90;;;;;;5057043;28;20222;-60
2022/12/11 00:57:10;;;;;;;28.65;17.00;;;-0.70;99.90;;;;;;5056973;28;20206;-60
2022/12/11 00:59:39;;;;;;;26.92;17.70;;;-0.70;99.90;;;;;;5057246;28;20217;-60
2022/12/11 01:02:05;;;;;;;30.88;17.58;;;-0.70;99.90;;;;;;5057523;28;20213;-60
2022/12/11 01:04:34;;;;;;;29.02;15.35;;;-0.70;99.90;;;;;;5056882;28;20676;-60
2022/12/11 01:07:01;;;;;;;27.25;15.85;;;-0.70;99.90;;;;;;5057069;28;20208;-60
2022/12/11 01:12:12;;;;;;;30.35;17.17;;;-0.80;99.90;;;;;;5057438;28;20641;-60
2022/12/11 01:14:40;;;;;;;30.17;15.68;;;-0.80;99.90;;;;;;5056713;28;20335;-61
2022/12/11 01:17:07;;;;;;;24.15;16.23;;;-0.80;99.90;;;;;;5056861;28;20217;-61
2022/12/11 01:19:34;;;;;;;28.67;16.13;;;-0.80;99.90;;;;;;5056657;28;20202;-60
2022/12/11 01:22:01;;;;;;;26.02;15.32;;;-0.80;99.90;;;;;;5056645;28;20188;-60
2022/12/11 01:24:27;;;;;;;27.02;15.90;;;-0.80;99.90;;;;;;5057007;28;20209;-60
2022/12/11 01:26:54;;;;;;;27.98;15.73;;;-0.80;99.90;;;;;;5057082;28;20211;-60
2022/12/11 01:29:21;;;;;;;28.30;15.73;;;-0.80;99.90;;;;;;5057454;28;20205;-60
2022/12/11 01:31:49;;;;;;;24.42;14.02;;;-0.80;99.90;;;;;;5057078;28;20229;-60
2022/12/11 01:34:15;;;;;;;27.10;16.42;;;-0.80;99.90;;;;;;5056842;28;20572;-60
2022/12/11 01:36:42;;;;;;;29.58;17.13;;;-0.80;99.90;;;;;;5056636;28;20209;-60
2022/12/11 01:39:09;;;;;;;34.83;18.25;;;-0.80;99.90;;;;;;5056408;28;20204;-60
2022/12/11 01:41:36;;;;;;;27.63;15.40;;;-0.80;99.90;;;;;;5056632;28;20251;-60
2022/12/11 01:44:04;;;;;;;26.60;16.35;;;-0.80;99.90;;;;;;5057184;28;20205;-60
2022/12/11 01:46:33;;;;;;;24.58;15.80;;;-0.80;99.90;;;;;;5060436;28;20216;-60
2022/12/11 01:49:04;;;;;;;30.38;15.02;;;-0.90;99.90;;;;;;5059436;28;20212;-59
2022/12/11 01:51:34;;;;;;;24.58;14.68;;;-0.80;99.90;;;;;;5056092;28;20233;-60
2022/12/11 01:54:06;;;;;;;24.00;14.52;;;-0.80;99.90;;;;;;5056286;28;20601;-60
2022/12/11 01:56:35;;;;;;;23.92;13.98;;;-0.80;99.90;;;;;;5057068;28;20220;-60
2022/12/11 01:59:06;;;;;;;24.48;15.07;;;-0.80;99.90;;;;;;5056738;28;20203;-59
2022/12/11 02:01:36;;;;;;;28.95;16.70;;;-0.80;99.90;;;;;;5056272;28;20253;-60
2022/12/11 02:04:06;;;;;;;25.17;14.63;;;-0.80;99.90;;;;;;5056087;28;20570;-60
2022/12/11 02:06:36;;;;;;;26.88;15.57;;;-0.90;99.90;;;;;;5055911;28;20201;-60
2022/12/11 02:09:05;;;;;;;24.08;15.25;;;-0.90;99.90;;;;;;5056210;28;20310;-60
2022/12/11 02:11:40;;;;;;;23.88;14.90;;;-0.90;99.90;;;;;;5056428;28;20728;-60
2022/12/11 02:14:17;;;;;;;24.88;15.27;;;-0.90;99.90;;;;;;5055736;28;20196;-60
2022/12/11 02:16:50;;;;;;;25.02;15.77;;;-0.80;99.90;;;;;;5058902;28;20219;-60
2022/12/11 02:19:38;;;;;;;25.15;15.50;;;-0.80;99.90;;;;;;5059944;28;20201;-60
2022/12/11 02:22:13;;;;;;;26.75;15.52;;;-0.80;99.90;;;;;;5062869;28;20193;-60
2022/12/11 02:24:52;;;;;;;24.40;14.70;;;-0.80;99.90;;;;;;5063499;28;20194;-60
2022/12/11 02:27:30;;;;;;;22.35;15.18;;;-0.80;99.90;;;;;;5061767;28;20597;-60
2022/12/11 02:30:02;;;;;;;23.48;15.32;;;-0.80;99.90;;;;;;5062235;28;20225;-60
2022/12/11 02:32:35;;;;;;;24.92;15.18;;;-0.80;99.90;;;;;;5061477;28;20542;-60
2022/12/11 02:35:09;;;;;;;23.90;15.20;;;-0.80;99.90;;;;;;5059655;28;20209;-60
2022/12/11 02:37:37;;;;;;;27.13;13.40;;;-0.80;99.90;;;;;;5060404;28;20239;-60
2022/12/11 02:40:09;;;;;;;22.33;14.60;;;-0.80;99.90;;;;;;5060760;28;20236;-60
2022/12/11 02:42:39;;;;;;;22.58;13.40;;;-0.80;99.90;;;;;;5063213;28;20196;-60
2022/12/11 02:45:10;;;;;;;19.35;13.27;;;-0.80;99.90;;;;;;5066969;28;20197;-60
2022/12/11 02:47:39;;;;;;;23.23;14.70;;;-0.80;99.90;;;;;;5069272;28;20193;-60
2022/12/11 02:50:11;;;;;;;21.35;13.27;;;-0.80;99.90;;;;;;5067034;28;20228;-60
2022/12/11 02:52:41;;;;;;;25.08;15.10;;;-0.80;99.90;;;;;;5065711;28;20201;-59
2022/12/11 02:55:10;;;;;;;23.85;13.55;;;-0.90;99.90;;;;;;5059699;28;20706;-59
2022/12/11 02:57:43;;;;;;;19.73;13.07;;;-0.90;99.90;;;;;;5057432;28;20238;-60
2022/12/11 03:00:12;;;;;;;23.05;13.40;;;-0.90;99.90;;;;;;5057008;28;20252;-59
2022/12/11 03:02:41;;;;;;;16.70;10.43;;;-0.90;99.90;;;;;;5055749;28;20205;-60
2022/12/11 03:05:09;;;;;;;21.60;11.63;;;-0.90;99.90;;;;;;5055994;28;20284;-60
2022/12/11 03:07:38;;;;;;;17.02;12.05;;;-0.90;99.90;;;;;;5055894;28;20204;-60
2022/12/11 03:10:07;;;;;;;23.38;12.90;;;-0.90;99.90;;;;;;5055077;28;20225;-59
2022/12/11 03:12:36;;;;;;;18.13;12.30;;;-0.90;99.90;;;;;;5055822;28;20215;-60
2022/12/11 03:15:08;;;;;;;22.23;12.90;;;-0.90;99.90;;;;;;5056040;28;20274;-59
2022/12/11 03:17:47;;;;;;;21.10;12.85;;;-0.90;99.90;;;;;;5056046;28;20247;-60
2022/12/11 03:20:22;;;;;;;21.00;12.80;;;-0.90;99.90;;;;;;5055201;28;20239;-60
2022/12/11 03:22:57;;;;;;;21.45;12.80;;;-0.90;99.90;;;;;;5056179;28;20189;-60
2022/12/11 03:25:30;;;;;;;25.35;13.35;;;-0.90;99.90;;;;;;5054704;28;20191;-60
2022/12/11 03:28:02;;;;;;;20.13;13.27;;;-0.90;99.90;;;;;;5055939;28;20217;-59
2022/12/11 03:30:31;;;;;;;23.92;13.95;;;-0.90;99.90;;;;;;5055513;28;20228;-60
2022/12/11 03:33:06;;;;;;;22.02;13.63;;;-0.80;99.90;;;;;;5054712;28;20210;-60
2022/12/11 03:35:37;;;;;;;27.33;15.40;;;-0.80;99.90;;;;;;5054369;28;20212;-60
2022/12/11 03:38:08;;;;;;;24.13;13.32;;;-0.80;99.90;;;;;;5054342;28;20182;-60
2022/12/11 03:40:36;;;;;;;23.02;14.73;;;-0.80;99.90;;;;;;5054337;28;20319;-60
2022/12/11 03:43:05;;;;;;;25.02;14.40;;;-0.80;99.90;;;;;;5054671;28;20217;-60
2022/12/11 03:45:33;;;;;;;20.90;13.68;;;-0.80;99.90;;;;;;5053427;28;20201;-60
2022/12/11 03:48:03;;;;;;;21.30;13.95;;;-0.80;99.90;;;;;;5054976;28;20205;-60
2022/12/11 03:50:32;;;;;;;20.75;13.95;;;-0.70;99.90;;;;;;5057897;28;20735;-61
2022/12/11 03:53:01;;;;;;;23.88;15.00;;;-0.70;99.90;;;;;;5053775;28;20205;-60
2022/12/11 03:55:29;;;;;;;24.75;14.85;;;-0.80;99.90;;;;;;5054035;28;20692;-60
2022/12/11 03:57:56;;;;;;;23.88;14.15;;;-0.80;99.90;;;;;;5053585;28;20213;-60
2022/12/11 04:00:23;;;;;;;20.00;13.20;;;-0.80;99.90;;;;;;5052672;28;20236;-59
2022/12/11 04:05:32;;;;;;;25.17;13.55;;;-0.80;99.90;;;;;;5051872;28;20657;-60
2022/12/11 04:10:44;;;;;;;19.27;13.52;;;-0.80;99.90;;;;;;5111762;27;20560;-60
2022/12/11 04:13:11;;;;;;;21.75;13.10;;;-0.80;99.90;;;;;;5113116;28;20207;-59
2022/12/11 04:15:37;;;;;;;23.08;14.90;;;-0.80;99.90;;;;;;5111374;28;20200;-60
2022/12/11 04:26:20;;;;;;;25.77;15.15;;;-0.70;99.90;;;;;;5110862;28;20194;-60
2022/12/11 04:28:48;;;;;;;24.40;14.05;;;-0.70;99.90;;;;;;5111044;28;20230;-59
2022/12/11 04:31:17;;;;;;;16.80;12.32;;;-0.70;99.90;;;;;;5110859;28;20230;-60
2022/12/11 04:33:44;;;;;;;24.88;14.25;;;-0.80;99.90;;;;;;5111001;28;20203;-60
2022/12/11 04:36:11;;;;;;;22.85;15.75;;;-0.80;99.90;;;;;;5110914;28;20210;-60
2022/12/11 04:38:38;;;;;;;18.20;11.85;;;-0.80;99.90;;;;;;5110718;28;20203;-61
2022/12/11 04:41:06;;;;;;;21.10;13.40;;;-0.70;99.90;;;;;;5110740;28;20227;-61
2022/12/11 04:43:35;;;;;;;22.05;13.43;;;-0.80;99.90;;;;;;5110364;28;20200;-60
2022/12/11 04:46:04;;;;;;;24.60;13.80;;;-0.70;99.90;;;;;;5111138;28;20200;-60
2022/12/11 04:48:31;;;;;;;22.02;13.55;;;-0.80;99.90;;;;;;5111691;28;20204;-61
2022/12/11 04:50:58;;;;;;;22.48;14.45;;;-0.80;99.90;;;;;;5110948;28;20231;-60
2022/12/11 04:53:25;;;;;;;25.90;14.40;;;-0.80;99.90;;;;;;5111422;28;20285;-61
2022/12/11 04:55:52;;;;;;;22.08;14.10;;;-0.70;99.90;;;;;;5110994;28;20204;-61
2022/12/11 04:58:19;;;;;;;24.58;14.45;;;-0.70;99.90;;;;;;5110412;28;20207;-60
2022/12/11 05:00:47;;;;;;;21.25;13.25;;;-0.70;99.90;;;;;;5109961;28;20220;-60
2022/12/11 05:03:14;;;;;;;20.80;12.55;;;-0.70;99.90;;;;;;5109882;28;20207;-60
2022/12/11 05:05:41;;;;;;;25.67;15.25;;;-0.70;99.90;;;;;;5110089;28;20204;-59
2022/12/11 05:08:08;;;;;;;22.00;14.10;;;-0.70;99.90;;;;;;5110344;28;20206;-60
2022/12/11 05:10:34;;;;;;;24.05;13.45;;;-0.70;99.90;;;;;;5114806;28;20246;-60
2022/12/11 05:13:01;;;;;;;20.63;13.90;;;-0.70;99.90;;;;;;5124531;28;20210;-60
2022/12/11 05:15:28;;;;;;;21.77;13.75;;;-0.70;99.90;;;;;;5121264;28;20217;-61
2022/12/11 05:17:56;;;;;;;23.02;14.45;;;-0.70;99.90;;;;;;5111065;28;20210;-61
2022/12/11 05:20:23;;;;;;;22.83;14.43;;;-0.70;99.90;;;;;;5106143;28;20239;-61
2022/12/11 05:22:50;;;;;;;24.27;13.10;;;-0.70;99.90;;;;;;5096446;28;20208;-60
2022/12/11 05:25:17;;;;;;;22.52;14.32;;;-0.70;99.90;;;;;;5096588;28;20695;-60
2022/12/11 05:27:44;;;;;;;21.05;14.05;;;-0.70;99.90;;;;;;5096410;28;20196;-60
2022/12/11 05:30:11;;;;;;;18.13;12.60;;;-0.70;99.90;;;;;;5096861;28;20235;-59
2022/12/11 05:32:38;;;;;;;23.70;13.43;;;-0.70;99.90;;;;;;5097510;28;20573;-60
2022/12/11 05:35:06;;;;;;;23.48;14.95;;;-0.70;99.90;;;;;;5096766;28;20207;-61
2022/12/11 05:37:34;;;;;;;22.75;14.57;;;-0.70;99.90;;;;;;5096628;28;20201;-60
2022/12/11 05:40:00;;;;;;;19.77;12.73;;;-0.80;99.90;;;;;;5096007;28;20221;-61
2022/12/11 05:42:27;;;;;;;26.70;14.85;;;-0.80;99.90;;;;;;5096625;28;20196;-60
2022/12/11 05:44:54;;;;;;;24.90;15.68;;;-0.70;99.90;;;;;;5096533;28;20208;-60
2022/12/11 05:47:21;;;;;;;26.77;15.90;;;-0.80;99.90;;;;;;5096488;28;20204;-58
2022/12/11 05:49:47;;;;;;;22.42;14.43;;;-0.80;99.90;;;;;;5096863;28;20232;-60
2022/12/11 05:52:16;;;;;;;21.90;14.70;;;-0.70;99.90;;;;;;5099616;28;20196;-61
2022/12/11 05:54:42;;;;;;;20.17;13.45;;;-0.80;99.90;;;;;;5099303;28;20226;-60
2022/12/11 05:57:09;;;;;;;25.08;14.88;;;-0.80;99.90;;;;;;5100420;28;20199;-60
2022/12/11 05:59:36;;;;;;;25.17;14.90;;;-0.80;99.90;;;;;;5100317;28;20211;-59
2022/12/11 06:02:03;;;;;;;23.45;14.13;;;-0.80;99.90;;;;;;5103721;28;20264;-60
2022/12/11 06:04:29;;;;;;;23.85;14.88;;;-0.80;99.90;;;;;;5098360;28;20204;-59
2022/12/11 06:06:56;;;;;;;20.20;13.65;;;-0.80;99.90;;;;;;5098145;28;20227;-60
2022/12/11 06:09:24;;;;;;;22.25;14.45;;;-0.80;99.90;;;;;;5097187;28;20222;-60
2022/12/11 06:11:51;;;;;;;20.13;14.00;;;-0.80;99.90;;;;;;5098072;28;20200;-60
2022/12/11 06:14:18;;;;;;;24.77;14.98;;;-0.80;99.90;;;;;;5103361;28;20580;-60
2022/12/11 06:16:44;;;;;;;22.15;12.60;;;-0.80;99.90;;;;;;5101842;28;20200;-60
2022/12/11 06:19:14;;;;;;;23.85;14.77;;;-0.80;99.90;;;;;;5101681;28;20219;-60
2022/12/11 06:21:41;;;;;;;23.83;13.82;;;-0.90;99.90;;;;;;5102009;28;20223;-60
2022/12/11 06:24:10;;;;;;;21.55;13.73;;;-0.90;99.90;;;;;;5102058;28;20208;-61
2022/12/11 06:26:38;;;;;;;22.95;14.70;;;-0.90;99.90;;;;;;5101773;28;20201;-60
2022/12/11 06:29:05;;;;;;;21.17;13.70;;;-0.90;99.90;;;;;;5100801;28;20204;-60
2022/12/11 06:31:31;;;;;;;22.00;13.68;;;-0.90;99.90;;;;;;5101350;28;20269;-59
2022/12/11 06:33:58;;;;;;;25.30;14.32;;;-0.90;99.90;;;;;;5100038;28;20295;-60
2022/12/11 06:36:25;;;;;;;24.30;15.25;;;-0.90;99.90;;;;;;5101257;28;20204;-60
2022/12/11 06:38:54;;;;;;;23.45;15.30;;;-0.90;99.90;;;;;;5097754;28;20199;-60
2022/12/11 06:41:21;;;;;;;20.52;13.88;;;-0.90;99.90;;;;;;5095661;28;20224;-59
2022/12/11 06:43:49;;;;;;;21.50;14.75;;;-0.90;99.90;;;;;;5095173;28;20208;-60
2022/12/11 06:46:18;;;;;;;22.67;14.40;;;-0.90;99.90;;;;;;5094910;28;20300;-60
2022/12/11 06:48:46;;;;;;;19.48;13.23;;;-0.90;99.90;;;;;;5095096;28;20196;-59
2022/12/11 06:51:14;;;;;;;23.90;14.77;;;-0.90;99.90;;;;;;5095609;28;20286;-60
2022/12/11 06:53:41;;;;;;;20.75;13.20;;;-0.90;99.90;;;;;;5096234;28;20211;-60
2022/12/11 06:56:10;;;;;;;27.40;15.43;;;-0.90;99.90;;;;;;5098944;28;20196;-60
2022/12/11 06:58:37;;;;;;;21.10;13.73;;;-0.90;99.90;;;;;;5098512;28;20215;-60
2022/12/11 07:01:16;;;;;;;24.05;15.07;;;-0.90;99.90;;;;;;5098160;28;20217;-60
2022/12/11 07:03:43;;;;;;;26.88;15.77;;;-0.90;99.90;;;;;;5098439;28;20222;-60
2022/12/11 07:06:10;;;;;;;21.60;13.75;;;-0.90;99.90;;;;;;5099865;28;20208;-61
2022/12/11 07:08:36;;;;;;;26.45;14.25;;;-0.90;99.90;;;;;;5098632;28;20204;-60
2022/12/11 07:11:04;;;;;;;25.10;14.18;;;-0.90;99.90;;;;;;5097810;28;20220;-60
2022/12/11 07:13:32;;;;;;;23.75;14.30;;;-0.90;99.90;;;;;;5096846;28;20204;-60
2022/12/11 07:16:00;;;;;;;24.88;15.07;;;-0.90;99.90;;;;;;5097583;28;20210;-60
2022/12/11 07:18:28;;;;;;;22.85;13.82;;;-0.90;99.90;;;;;;5095618;28;20200;-60
2022/12/11 07:20:58;;;;;;;19.25;11.98;;;-1.00;99.90;;;;;;5094045;28;20232;-60
2022/12/11 07:23:24;;;;;;;21.63;13.65;;;-1.00;99.90;;;;;;5094750;28;20206;-60
2022/12/11 07:25:51;;;;;;;21.35;13.73;;;-1.00;99.90;;;;;;5094836;28;20204;-60
2022/12/11 07:28:18;;;;;;;21.65;13.73;;;-1.00;99.90;;;;;;5094570;28;20593;-60
2022/12/11 07:30:45;;;;;;;25.10;14.70;;;-1.00;99.90;;;;;;5104135;28;20224;-60
2022/12/11 07:33:11;;;;;;;22.42;14.60;;;-1.00;99.90;;;;;;5107143;28;20200;-60
2022/12/11 07:35:39;;;;;;;22.58;13.80;;;-1.00;99.90;;;;;;5108607;28;20211;-60
2022/12/11 07:38:06;;;;;;;21.80;12.90;;;-1.00;99.90;;;;;;5103820;28;20200;-60
2022/12/11 07:40:34;;;;;;;23.98;13.57;;;-1.10;99.90;;;;;;5107914;28;20231;-60
2022/12/11 07:43:00;;;;;;;22.10;13.23;;;-1.10;99.90;;;;;;5107948;28;20648;-60
2022/12/11 07:45:27;;;;;;;20.40;12.20;;;-1.10;99.90;;;;;;5099554;28;20207;-60
2022/12/11 07:47:54;;;;;;;23.65;14.25;;;-1.10;99.90;;;;;;5096470;28;20204;-60
2022/12/11 07:50:21;;;;;;;23.42;13.90;;;-1.10;99.90;;;;;;5097919;28;20228;-59
2022/12/11 07:52:49;;;;;;;23.27;14.45;;;-1.10;99.90;;;;;;5099228;28;20212;-59
2022/12/11 07:55:15;;;;;;;26.33;15.52;;;-1.10;99.90;;;;;;5102899;28;20209;-59
2022/12/11 07:57:42;;;;;;;30.48;14.85;;;-1.10;99.90;;;;;;5104652;28;20200;-60
2022/12/11 08:00:10;;;;;;;22.98;13.60;;;-1.10;99.90;;;;;;5104587;28;20216;-60
2022/12/11 08:02:37;;;;;;;21.48;13.30;;;-1.00;99.90;;;;;;5104016;28;20208;-61
2022/12/11 08:05:04;;;;;;;26.35;13.70;;;-1.00;99.90;;;;;;5104458;28;20196;-60
2022/12/11 08:07:34;;;;;;;23.60;13.23;;;-1.00;99.90;;;;;;5104545;28;20208;-59
2022/12/11 08:10:02;;;;;;;22.52;13.98;;;-1.00;99.90;;;;;;5101301;28;20235;-61
2022/12/11 08:12:29;;;;;;;25.20;15.45;;;-1.00;99.90;;;;;;5095723;28;20200;-60
2022/12/11 08:14:56;;;;;;;29.77;15.10;;;-1.00;99.90;;;;;;5097349;28;20199;-60
2022/12/11 08:17:22;;;;;;;28.58;15.13;;;-1.00;99.90;;;;;;5096133;28;20215;-60
2022/12/11 08:19:49;;;;;;;22.00;14.52;;;-1.00;99.90;;;;;;5096380;28;20223;-60
2022/12/11 08:22:16;;;;;;;20.90;13.90;;;-1.00;99.90;;;;;;5095980;28;20215;-61
2022/12/11 08:24:43;;;;;;;26.20;13.57;;;-1.00;99.90;;;;;;5096118;28;20206;-59
2022/12/11 08:27:11;;;;;;;25.08;14.73;;;-1.00;99.90;;;;;;5096228;28;20291;-61
2022/12/11 08:29:38;;;;;;;24.05;15.00;;;-1.00;99.90;;;;;;5098105;28;20570;-60
2022/12/11 08:32:05;;;;;;;24.65;14.68;;;-1.00;99.90;;;;;;5096518;28;20207;-59
2022/12/11 08:34:31;;;;;;;23.95;15.73;;;-0.90;99.90;;;;;;5096396;28;20200;-59
2022/12/11 08:36:58;;;;;;;28.83;15.95;;;-0.90;99.90;;;;;;5095079;28;20205;-60
2022/12/11 08:39:25;;;;;;;24.83;14.10;;;-0.90;99.90;;;;;;5094429;28;20204;-60
2022/12/11 08:41:52;;;;;;;23.90;15.35;;;-0.80;99.90;;;;;;5095001;28;20203;-62
2022/12/11 08:44:23;;;;;;;22.17;13.55;;;-0.90;99.90;;;;;;5094548;28;20215;-61
2022/12/11 08:46:50;;;;;;;20.58;12.55;;;-0.80;99.90;;;;;;5094027;28;20188;-60
2022/12/11 08:49:17;;;;;;;21.98;11.35;;;-0.80;99.90;;;;;;5093962;28;20223;-59
2022/12/11 08:51:44;;;;;;;21.23;13.43;;;-0.80;99.90;;;;;;5093888;28;20224;-61
2022/12/11 08:54:11;;;;;;;25.02;13.73;;;-0.70;99.90;;;;;;5094721;28;20203;-59
2022/12/11 08:56:37;;;;;;;20.48;13.43;;;-0.70;99.90;;;;;;5097469;28;20678;-60
2022/12/11 08:59:05;;;;;;;20.95;12.35;;;-0.70;99.90;;;;;;5098265;28;20204;-60
2022/12/11 09:01:33;;;;;;;27.23;13.70;;;-0.70;99.90;;;;;;5097752;28;20331;-60
2022/12/11 09:03:59;;;;;;;20.50;13.48;;;-0.70;99.90;;;;;;5098406;28;20584;-60
2022/12/11 09:06:29;;;;;;;22.08;13.93;;;-0.70;99.90;;;;;;5097708;28;20212;-60
2022/12/11 09:08:59;;;;;;;26.20;14.73;;;-0.70;99.90;;;;;;5097725;28;20238;-60
2022/12/11 09:11:28;;;;;;;22.58;13.48;;;-0.70;99.90;;;;;;5097279;28;20692;-61
2022/12/11 09:13:55;;;;;;;18.42;12.05;;;-0.60;99.90;;;;;;5098428;28;20204;-60
2022/12/11 09:16:24;;;;;;;26.13;14.57;;;-0.60;99.90;;;;;;5097292;28;20204;-61
2022/12/11 09:18:54;;;;;;;24.02;13.15;;;-0.50;99.90;;;;;;5097073;28;20574;-60
2022/12/11 09:21:23;;;;;;;24.33;14.10;;;-0.50;99.90;;;;;;5097493;28;20227;-60
2022/12/11 09:23:53;;;;;;;21.73;14.07;;;-0.50;99.90;;;;;;5097597;28;20200;-60
2022/12/11 09:26:20;;;;;;;27.33;14.30;;;-0.50;99.90;;;;;;5098067;28;20579;-60
2022/12/11 09:28:47;;;;;;;25.38;14.43;;;-0.40;99.90;;;;;;5098533;28;20207;-60
2022/12/11 09:31:15;;;;;;;22.08;14.60;;;-0.40;99.90;;;;;;5097579;28;20223;-60
2022/12/11 09:33:42;;;;;;;24.85;14.75;;;-0.40;99.90;;;;;;5096945;28;20200;-60
2022/12/11 09:36:11;;;;;;;21.20;13.15;;;-0.40;99.90;;;;;;5098473;28;20207;-59
2022/12/11 09:38:38;;;;;;;18.55;13.32;;;-0.40;99.90;;;;;;5099094;28;20212;-61
2022/12/11 09:41:26;;;;;;;21.40;13.45;;;-0.40;99.90;;;;;;5097089;28;20224;-60
2022/12/11 09:44:01;;;;;;;23.63;12.80;;;-0.30;99.90;;;;;;5097075;28;20181;-60
2022/12/11 09:46:29;;;;;;;23.17;12.85;;;-0.30;99.90;;;;;;5096646;28;20192;-61
2022/12/11 09:48:56;;;;;;;15.55;10.07;;;-0.20;99.90;;;;;;5096318;28;20211;-60
2022/12/11 09:51:29;;;;;;;20.23;13.30;;;-0.20;99.90;;;;;;5099430;28;20224;-60
2022/12/11 09:53:59;;;;;;;21.25;12.32;;;-0.20;99.90;;;;;;5104792;28;20184;-60
2022/12/11 09:56:32;;;;;;;24.10;14.10;;;-0.20;99.90;;;;;;5098650;28;20196;-60
2022/12/11 09:59:04;;;;;;;23.63;15.00;;;-0.20;99.90;;;;;;5097483;28;20181;-60
2022/12/11 10:01:39;;;;;;;21.10;13.25;;;-0.10;99.90;;;;;;5095943;28;20735;-60
2022/12/11 10:04:21;;;;;;;21.23;14.20;;;-0.10;99.90;;;;;;5096062;28;20268;-61
2022/12/11 10:06:58;;;;;;;23.00;13.18;;;0.00;99.90;;;;;;5095834;28;20655;-60
2022/12/11 10:09:35;;;;;;;20.15;12.75;;;0.00;99.90;;;;;;5095608;28;20212;-60
2022/12/11 10:12:17;;;;;;;26.30;15.10;;;0.00;99.90;;;;;;5096310;28;20208;-59
2022/12/11 10:14:58;;;;;;;23.58;13.50;;;0.10;99.90;;;;;;5095594;28;20192;-59
2022/12/11 10:17:29;;;;;;;22.98;13.43;;;0.00;99.90;;;;;;5096000;28;20189;-60
2022/12/11 10:19:57;;;;;;;22.58;13.30;;;0.00;99.90;;;;;;5096394;28;20224;-59
2022/12/11 10:22:29;;;;;;;19.52;13.15;;;0.00;99.90;;;;;;5096886;28;20208;-60
2022/12/11 10:24:58;;;;;;;23.25;12.95;;;0.10;99.90;;;;;;5098479;28;20192;-59
2022/12/11 10:27:30;;;;;;;21.02;13.93;;;0.10;99.90;;;;;;5096623;28;20204;-60
2022/12/11 10:30:02;;;;;;;19.83;12.63;;;0.10;99.90;;;;;;5096211;28;20599;-60
2022/12/11 10:32:36;;;;;;;19.73;11.82;;;0.20;99.90;;;;;;5096227;28;20181;-60
2022/12/11 10:35:06;;;;;;;25.92;13.80;;;0.20;99.90;;;;;;5096340;28;20180;-60
2022/12/11 10:37:34;;;;;;;24.38;12.20;;;0.20;99.90;;;;;;5095618;28;20204;-60
2022/12/11 10:40:01;;;;;;;17.77;12.63;;;0.30;99.90;;;;;;5095663;28;20220;-59
2022/12/11 10:42:27;;;;;;;20.85;11.40;;;0.30;99.90;;;;;;5095520;28;20196;-61
2022/12/11 10:45:00;;;;;;;15.25;10.77;;;0.30;99.90;;;;;;5095129;28;20684;-61
2022/12/11 10:47:28;;;;;;;20.13;10.88;;;0.30;99.90;;;;;;5095245;28;20518;-59
2022/12/11 10:49:57;;;;;;;17.50;10.68;;;0.40;99.90;;;;;;5095822;28;20219;-60
2022/12/11 10:52:26;;;;;;;14.70;10.45;;;0.50;99.90;;;;;;5095834;28;20315;-60
2022/12/11 10:55:01;;;;;;;15.82;10.25;;;0.50;99.90;;;;;;5096543;28;20208;-61
2022/12/11 10:57:29;;;;;;;18.67;10.57;;;0.50;99.90;;;;;;5096613;28;20188;-59
2022/12/11 10:59:57;;;;;;;21.27;11.82;;;0.40;99.90;;;;;;5095847;28;20224;-61
2022/12/11 11:02:27;;;;;;;20.98;12.80;;;0.40;99.90;;;;;;5097022;28;20199;-61
2022/12/11 11:04:55;;;;;;;18.30;11.13;;;0.50;99.90;;;;;;5094930;28;20668;-60
2022/12/11 11:07:24;;;;;;;16.42;11.40;;;0.50;99.90;;;;;;5095374;28;20196;-60
2022/12/11 11:09:53;;;;;;;17.50;11.48;;;0.50;99.90;;;;;;5095436;28;20243;-60
2022/12/11 11:12:25;;;;;;;18.67;12.77;;;0.40;99.90;;;;;;5094662;28;20311;-61
2022/12/11 11:15:01;;;;;;;20.35;12.25;;;0.40;99.90;;;;;;5094879;28;20184;-60
2022/12/11 11:17:30;;;;;;;15.02;9.80;;;0.30;99.90;;;;;;5095519;28;20189;-61
2022/12/11 11:20:00;;;;;;;17.23;11.55;;;0.30;99.90;;;;;;5094206;28;20216;-60
2022/12/11 11:22:27;;;;;;;17.52;12.25;;;0.20;99.90;;;;;;5095114;28;20235;-60
2022/12/11 11:24:56;;;;;;;17.98;11.85;;;0.10;99.90;;;;;;5096564;28;20233;-61
2022/12/11 11:27:29;;;;;;;17.98;10.95;;;0.10;99.90;;;;;;5094575;28;20210;-60
2022/12/11 11:29:58;;;;;;;15.25;10.80;;;0.00;99.90;;;;;;5094215;28;20231;-61
2022/12/11 11:32:31;;;;;;;21.85;12.05;;;0.00;99.90;;;;;;5094291;28;20668;-60
2022/12/11 11:35:06;;;;;;;21.45;12.80;;;-0.10;99.90;;;;;;5094762;28;20195;-60
2022/12/11 11:37:34;;;;;;;25.85;13.02;;;-0.20;99.90;;;;;;5094668;28;20202;-61
2022/12/11 11:40:08;;;;;;;19.88;12.88;;;-0.10;99.90;;;;;;5094766;28;20235;-61
2022/12/11 11:42:45;;;;;;;29.20;12.40;;;-0.10;99.90;;;;;;5095418;28;20183;-60
2022/12/11 11:45:16;;;;;;;18.67;11.25;;;0.00;99.90;;;;;;5101193;28;20255;-60
2022/12/11 11:47:50;;;;;;;19.10;12.48;;;0.00;99.90;;;;;;5104528;28;20189;-60
2022/12/11 11:50:22;;;;;;;16.05;11.98;;;0.00;99.90;;;;;;5097150;28;20659;-60
2022/12/11 11:52:55;;;;;;;19.10;12.65;;;0.10;99.90;;;;;;5094828;28;20196;-59
2022/12/11 11:55:37;;;;;;;20.67;12.80;;;0.10;99.90;;;;;;5094572;28;20187;-61
2022/12/11 11:58:12;;;;;;;18.08;11.63;;;0.20;99.90;;;;;;5096681;28;20222;-61
2022/12/11 12:00:39;;;;;;;23.42;12.90;;;0.20;99.90;;;;;;5108158;28;20227;-60
2022/12/11 12:03:10;;;;;;;23.50;13.25;;;0.20;99.90;;;;;;5094369;28;20718;-60
2022/12/11 12:05:45;;;;;;;18.10;13.25;;;0.20;99.90;;;;;;5095047;28;20195;-60
2022/12/11 12:08:17;;;;;;;21.60;13.10;;;0.30;99.90;;;;;;5094513;28;20242;-60
2022/12/11 12:10:50;;;;;;;18.20;13.98;;;0.30;99.90;;;;;;5094173;28;20254;-59
2022/12/11 12:13:26;;;;;;;18.17;13.15;;;0.40;99.90;;;;;;5096687;28;20202;-60
2022/12/11 12:15:56;;;;;;;17.45;13.77;;;0.40;99.90;;;;;;5097554;28;20188;-60
2022/12/11 12:18:33;;;;;;;21.63;12.55;;;0.40;99.90;;;;;;5098331;28;20204;-60
2022/12/11 12:21:05;;;;;;;22.42;13.30;;;0.40;99.90;;;;;;5094092;28;20220;-60
2022/12/11 12:23:44;;;;;;;18.05;11.90;;;0.50;99.90;;;;;;5094010;28;20215;-60
2022/12/11 12:26:16;;;;;;;20.33;13.30;;;0.50;99.90;;;;;;5094508;28;20189;-60
2022/12/11 12:28:52;;;;;;;21.35;12.25;;;0.50;99.90;;;;;;5094431;28;20287;-60
2022/12/11 12:31:44;;;;;;;17.35;11.45;;;0.50;99.90;;;;;;5095757;28;20227;-60
2022/12/11 12:34:18;;;;;;;14.02;9.85;;;0.50;99.90;;;;;;5098815;28;20196;-60
2022/12/11 12:36:53;;;;;;;22.95;12.68;;;0.40;99.60;;;;;;5098278;28;20620;-60
2022/12/11 12:39:28;;;;;;;20.70;12.43;;;0.40;99.70;;;;;;5098376;28;20196;-59
2022/12/11 12:42:00;;;;;;;20.27;13.68;;;0.30;99.50;;;;;;5098150;28;20242;-59
2022/12/11 12:44:32;;;;;;;19.13;11.15;;;0.30;99.80;;;;;;5097943;28;20189;-60
2022/12/11 12:47:03;;;;;;;20.65;10.85;;;0.40;99.90;;;;;;5097684;28;20185;-60
2022/12/11 12:49:40;;;;;;;18.20;10.02;;;0.40;99.70;;;;;;5097774;28;20200;-61
2022/12/11 12:52:13;;;;;;;15.93;10.10;;;0.50;99.60;;;;;;5098290;28;20231;-61
2022/12/11 12:54:42;;;;;;;18.85;10.95;;;0.60;99.30;;;;;;5098024;28;20518;-61